Time;durP1;ratioP1;P1;durP2;ratioP2;P2;SDS_P1;SDS_P2;PMS_P1;PMS_P2;Temp;Humidity;BMP_temperature;BMP_pressure;BME280_temperature;BME280_humidity;BME280_pressure;Samples;Min_cycle;Max_cycle;Signal;HPM_P1;HPM_P2
2023/05/08 00:01:23;;;;;;;17.40;11.45;;;;;;;;;;4957805;28;20090;-84
2023/05/08 00:03:50;;;;;;;17.13;11.07;;;;;;;;;;4931097;29;20048;-84
2023/05/08 00:06:17;;;;;;;16.50;11.18;;;;;;;;;;4942694;29;20377;-82
2023/05/08 00:08:44;;;;;;;19.00;11.63;;;;;;;;;;4943423;29;20067;-82
2023/05/08 00:11:10;;;;;;;16.55;10.90;;;;;;;;;;4945228;29;20408;-82
2023/05/08 00:13:40;;;;;;;18.00;11.98;;;;;;;;;;4960912;28;20402;-82
2023/05/08 00:16:08;;;;;;;16.42;10.95;;;;;;;;;;4946294;29;20062;-82
2023/05/08 00:18:36;;;;;;;16.58;11.00;;;;;;;;;;4946280;29;20106;-83
2023/05/08 00:21:03;;;;;;;16.67;10.88;;;;;;;;;;4965295;29;20055;-83
2023/05/08 00:23:30;;;;;;;16.65;10.70;;;;;;;;;;4952921;28;20059;-82
2023/05/08 00:25:57;;;;;;;16.67;11.45;;;;;;;;;;4959642;28;20051;-81
2023/05/08 00:28:26;;;;;;;14.95;10.60;;;;;;;;;;4969555;28;20039;-83
2023/05/08 00:30:53;;;;;;;19.02;11.55;;;;;;;;;;4968767;28;20031;-83
2023/05/08 00:33:23;;;;;;;17.42;11.25;;;;;;;;;;4969033;28;20051;-82
2023/05/08 00:35:49;;;;;;;16.17;10.75;;;;;;;;;;4965489;28;20047;-82
2023/05/08 00:38:16;;;;;;;16.45;10.80;;;;;;;;;;4965379;28;20047;-82
2023/05/08 00:40:42;;;;;;;17.67;10.68;;;;;;;;;;4949074;28;20043;-82
2023/05/08 00:43:09;;;;;;;17.38;10.98;;;;;;;;;;4964739;28;20070;-83
2023/05/08 00:45:37;;;;;;;16.58;10.50;;;;;;;;;;4964198;28;20039;-83
2023/05/08 00:48:05;;;;;;;17.98;10.90;;;;;;;;;;4966821;28;20057;-81
2023/05/08 00:50:32;;;;;;;15.40;10.65;;;;;;;;;;4973463;28;20051;-81
2023/05/08 00:52:59;;;;;;;17.30;10.27;;;;;;;;;;4962044;28;20047;-84
2023/05/08 00:55:28;;;;;;;16.95;10.60;;;;;;;;;;4965173;28;20047;-83
2023/05/08 00:57:55;;;;;;;16.50;10.50;;;;;;;;;;4961646;28;20050;-83
2023/05/08 01:00:22;;;;;;;15.40;9.88;;;;;;;;;;4961183;28;20047;-83
2023/05/08 01:02:49;;;;;;;15.52;9.80;;;;;;;;;;4979443;28;20054;-83
2023/05/08 01:05:16;;;;;;;13.50;9.20;;;;;;;;;;4961964;28;20047;-83
2023/05/08 01:07:43;;;;;;;16.15;9.93;;;;;;;;;;4960307;28;20047;-82
2023/05/08 01:10:09;;;;;;;14.73;9.60;;;;;;;;;;4963254;28;20130;-83
2023/05/08 01:12:36;;;;;;;16.83;9.73;;;;;;;;;;4962326;28;20079;-82
2023/05/08 01:15:39;;;;;;;14.82;9.75;;;;;;;;;;4965188;28;20047;-83
2023/05/08 01:18:11;;;;;;;16.60;9.73;;;;;;;;;;4941675;28;20090;-81
2023/05/08 01:20:45;;;;;;;15.38;9.85;;;;;;;;;;4967586;28;20043;-82
2023/05/08 01:23:30;;;;;;;17.35;9.65;;;;;;;;;;4951092;28;20051;-82
2023/05/08 01:26:15;;;;;;;18.90;10.02;;;;;;;;;;4967027;28;20063;-82
2023/05/08 01:29:01;;;;;;;16.75;10.30;;;;;;;;;;4941527;28;20051;-83
2023/05/08 01:31:42;;;;;;;17.87;10.40;;;;;;;;;;4944200;28;20044;-82
2023/05/08 01:34:25;;;;;;;14.27;9.65;;;;;;;;;;4959382;28;20271;-83
2023/05/08 01:36:57;;;;;;;16.63;9.85;;;;;;;;;;4945984;28;20043;-82
2023/05/08 01:39:44;;;;;;;17.70;10.45;;;;;;;;;;4944946;29;20126;-82
2023/05/08 01:42:11;;;;;;;13.68;9.45;;;;;;;;;;4940958;28;20107;-83
2023/05/08 01:44:45;;;;;;;21.00;10.68;;;;;;;;;;4942598;28;20059;-83
2023/05/08 01:47:12;;;;;;;18.25;10.70;;;;;;;;;;4953182;28;20055;-81
2023/05/08 01:49:51;;;;;;;16.08;10.30;;;;;;;;;;4930433;28;20540;-81
2023/05/08 01:52:25;;;;;;;16.20;10.18;;;;;;;;;;4951260;28;20044;-80
2023/05/08 01:54:57;;;;;;;18.58;10.85;;;;;;;;;;4948119;28;20046;-82
2023/05/08 01:57:27;;;;;;;19.05;11.35;;;;;;;;;;4941995;28;20083;-82
2023/05/08 01:59:57;;;;;;;17.55;10.90;;;;;;;;;;4924478;29;20062;-83
2023/05/08 02:02:25;;;;;;;16.33;10.85;;;;;;;;;;4925788;29;20051;-83
2023/05/08 02:04:52;;;;;;;17.15;10.10;;;;;;;;;;4938186;28;20051;-82
2023/05/08 02:07:20;;;;;;;18.23;11.20;;;;;;;;;;4960482;28;20051;-83
2023/05/08 02:09:47;;;;;;;17.83;11.05;;;;;;;;;;4938310;28;20103;-82
2023/05/08 02:12:15;;;;;;;20.75;12.05;;;;;;;;;;4943539;28;20059;-82
2023/05/08 02:14:44;;;;;;;18.27;11.30;;;;;;;;;;4930072;28;20185;-81
2023/05/08 02:17:15;;;;;;;17.90;11.32;;;;;;;;;;4958766;28;20157;-82
2023/05/08 02:19:42;;;;;;;18.63;11.48;;;;;;;;;;4939038;28;20048;-81
2023/05/08 02:22:09;;;;;;;18.80;11.70;;;;;;;;;;4924946;28;20044;-82
2023/05/08 02:24:37;;;;;;;25.30;12.13;;;;;;;;;;4972584;28;20084;-81
2023/05/08 02:27:04;;;;;;;18.10;11.82;;;;;;;;;;4959026;28;20048;-81
2023/05/08 02:29:31;;;;;;;18.40;11.50;;;;;;;;;;4974343;28;20051;-82
2023/05/08 02:31:59;;;;;;;17.30;11.32;;;;;;;;;;4973661;28;20074;-82
2023/05/08 02:34:27;;;;;;;20.25;12.02;;;;;;;;;;4956544;28;20039;-81
2023/05/08 02:36:57;;;;;;;20.00;12.50;;;;;;;;;;4972773;28;20043;-82
2023/05/08 02:39:29;;;;;;;19.27;11.82;;;;;;;;;;4973263;28;20416;-81
2023/05/08 02:41:56;;;;;;;19.35;12.20;;;;;;;;;;4957309;28;20153;-82
2023/05/08 02:44:23;;;;;;;20.67;12.43;;;;;;;;;;4973228;28;20499;-81
2023/05/08 02:46:52;;;;;;;18.20;12.25;;;;;;;;;;4974023;28;20130;-81
2023/05/08 02:49:38;;;;;;;22.30;11.93;;;;;;;;;;4957123;28;20078;-83
2023/05/08 02:52:10;;;;;;;19.73;12.45;;;;;;;;;;4956719;28;20138;-83
2023/05/08 02:54:39;;;;;;;18.10;11.95;;;;;;;;;;4952784;28;20049;-80
2023/05/08 02:57:21;;;;;;;21.88;12.38;;;;;;;;;;4981160;28;20098;-81
2023/05/08 03:00:07;;;;;;;20.67;12.73;;;;;;;;;;4975704;28;20047;-82
2023/05/08 03:02:39;;;;;;;22.33;12.57;;;;;;;;;;4973138;28;20043;-83
2023/05/08 03:05:12;;;;;;;19.58;12.25;;;;;;;;;;4973019;28;20062;-82
2023/05/08 03:07:40;;;;;;;18.80;11.63;;;;;;;;;;4975950;28;20050;-82
2023/05/08 03:10:10;;;;;;;19.13;12.05;;;;;;;;;;4972557;28;20050;-82
2023/05/08 03:12:41;;;;;;;22.23;12.70;;;;;;;;;;4973986;28;20043;-81
2023/05/08 03:15:11;;;;;;;22.17;11.48;;;;;;;;;;4974667;28;20054;-82
2023/05/08 03:17:40;;;;;;;20.40;12.25;;;;;;;;;;4959037;28;20066;-81
2023/05/08 03:20:08;;;;;;;19.10;11.70;;;;;;;;;;4974028;28;20042;-81
2023/05/08 03:22:36;;;;;;;19.25;11.80;;;;;;;;;;4975337;28;20043;-82
2023/05/08 03:25:08;;;;;;;16.40;10.85;;;;;;;;;;4955318;28;20051;-82
2023/05/08 03:27:36;;;;;;;19.80;11.57;;;;;;;;;;4958822;28;20244;-82
2023/05/08 03:30:03;;;;;;;17.20;11.35;;;;;;;;;;4942868;28;20586;-82
2023/05/08 03:32:33;;;;;;;19.08;11.90;;;;;;;;;;4954430;28;20051;-83
2023/05/08 03:35:00;;;;;;;18.42;11.43;;;;;;;;;;4950998;28;20051;-82
2023/05/08 03:37:27;;;;;;;17.80;11.27;;;;;;;;;;4955116;28;20073;-82
2023/05/08 03:39:54;;;;;;;19.90;11.15;;;;;;;;;;4956084;28;20070;-84
2023/05/08 03:42:22;;;;;;;17.40;11.27;;;;;;;;;;4939196;28;20129;-83
2023/05/08 03:44:50;;;;;;;20.40;11.43;;;;;;;;;;4951978;28;20043;-80
2023/05/08 03:47:17;;;;;;;18.85;11.75;;;;;;;;;;4967692;28;20046;-81
2023/05/08 03:49:45;;;;;;;20.75;12.18;;;;;;;;;;4983188;28;20078;-82
2023/05/08 03:52:13;;;;;;;16.40;10.75;;;;;;;;;;4974905;28;20043;-83
2023/05/08 03:54:40;;;;;;;18.13;11.30;;;;;;;;;;4956484;28;20590;-83
2023/05/08 03:57:06;;;;;;;17.98;10.98;;;;;;;;;;4960336;28;20039;-83
2023/05/08 03:59:51;;;;;;;17.65;11.20;;;;;;;;;;4961506;28;20042;-82
2023/05/08 04:02:18;;;;;;;17.50;10.55;;;;;;;;;;4958687;28;20382;-83
2023/05/08 04:04:47;;;;;;;17.60;9.77;;;;;;;;;;4959068;28;20046;-82
2023/05/08 04:07:16;;;;;;;15.55;9.85;;;;;;;;;;4959374;28;20512;-84
2023/05/08 04:09:56;;;;;;;17.23;10.15;;;;;;;;;;4955691;28;20043;-82
2023/05/08 04:12:43;;;;;;;18.30;9.93;;;;;;;;;;4943070;28;20046;-83
2023/05/08 04:15:17;;;;;;;16.30;10.00;;;;;;;;;;4965478;28;20059;-81
2023/05/08 04:17:47;;;;;;;16.50;9.60;;;;;;;;;;4968556;28;20127;-84
2023/05/08 04:20:20;;;;;;;16.65;10.32;;;;;;;;;;4977174;28;20495;-85
2023/05/08 04:22:49;;;;;;;16.10;9.73;;;;;;;;;;4959107;28;20082;-84
2023/05/08 04:25:17;;;;;;;14.95;9.35;;;;;;;;;;4949336;28;20260;-84
2023/05/08 04:27:44;;;;;;;14.57;9.73;;;;;;;;;;4930311;29;20073;-83
2023/05/08 04:30:11;;;;;;;17.60;9.50;;;;;;;;;;4961694;28;20309;-83
2023/05/08 04:32:38;;;;;;;16.85;9.75;;;;;;;;;;4979608;28;20051;-83
2023/05/08 04:35:08;;;;;;;14.05;9.43;;;;;;;;;;4946725;28;20043;-84
2023/05/08 04:37:36;;;;;;;16.08;10.20;;;;;;;;;;4980599;28;20106;-82
2023/05/08 04:40:09;;;;;;;15.93;9.05;;;;;;;;;;4961173;28;20054;-85
2023/05/08 04:42:38;;;;;;;14.65;9.15;;;;;;;;;;4961060;28;20043;-85
2023/05/08 04:45:05;;;;;;;14.88;9.57;;;;;;;;;;4952334;28;20062;-84
2023/05/08 04:47:32;;;;;;;15.10;9.27;;;;;;;;;;4963075;28;20146;-83
2023/05/08 04:50:02;;;;;;;15.77;9.43;;;;;;;;;;4964866;28;20051;-84
2023/05/08 04:52:31;;;;;;;16.40;9.43;;;;;;;;;;4974784;28;20042;-84
2023/05/08 04:54:57;;;;;;;14.15;8.65;;;;;;;;;;4955855;28;20114;-82
2023/05/08 04:57:24;;;;;;;17.88;9.27;;;;;;;;;;4957672;28;20047;-83
2023/05/08 04:59:55;;;;;;;18.20;8.95;;;;;;;;;;4957383;28;20051;-82
2023/05/08 05:02:27;;;;;;;14.95;8.55;;;;;;;;;;4924768;28;20035;-84
2023/05/08 05:05:04;;;;;;;12.70;8.38;;;;;;;;;;4958540;28;20047;-83
2023/05/08 05:07:34;;;;;;;17.58;8.73;;;;;;;;;;4965256;28;20050;-83
2023/05/08 05:10:01;;;;;;;14.82;8.73;;;;;;;;;;4966748;28;20071;-82
2023/05/08 05:12:29;;;;;;;13.95;8.20;;;;;;;;;;4943233;28;20056;-84
2023/05/08 05:14:56;;;;;;;13.55;8.90;;;;;;;;;;4944510;28;20236;-79
2023/05/08 05:17:25;;;;;;;12.70;8.10;;;;;;;;;;4941918;28;20596;-83
2023/05/08 05:19:52;;;;;;;13.43;7.90;;;;;;;;;;4944276;28;20453;-83
2023/05/08 05:22:19;;;;;;;14.52;8.18;;;;;;;;;;4947955;29;20050;-83
2023/05/08 05:24:46;;;;;;;11.77;7.22;;;;;;;;;;4956924;28;20272;-83
2023/05/08 05:27:13;;;;;;;12.85;7.90;;;;;;;;;;4948931;28;20163;-86
2023/05/08 05:29:40;;;;;;;12.52;7.90;;;;;;;;;;4944172;28;20074;-83
2023/05/08 05:32:10;;;;;;;11.57;7.78;;;;;;;;;;4945724;28;20064;-83
2023/05/08 05:34:45;;;;;;;11.73;7.30;;;;;;;;;;4947932;29;20052;-85
2023/05/08 05:37:13;;;;;;;11.15;7.30;;;;;;;;;;4932435;28;20047;-83
2023/05/08 05:39:41;;;;;;;11.30;7.32;;;;;;;;;;4956115;28;20072;-85
2023/05/08 05:42:11;;;;;;;10.07;6.60;;;;;;;;;;4961697;28;20044;-86
2023/05/08 05:44:38;;;;;;;10.43;6.45;;;;;;;;;;4940986;28;20096;-84
2023/05/08 05:47:08;;;;;;;10.65;6.50;;;;;;;;;;4935568;28;20083;-84
2023/05/08 05:49:38;;;;;;;11.65;6.82;;;;;;;;;;4934300;28;20060;-84
2023/05/08 05:52:05;;;;;;;9.93;6.25;;;;;;;;;;4949949;28;20055;-83
2023/05/08 05:54:32;;;;;;;10.40;6.88;;;;;;;;;;4947847;28;20121;-84
2023/05/08 05:57:03;;;;;;;10.32;6.70;;;;;;;;;;4948187;28;20059;-84
2023/05/08 05:59:30;;;;;;;9.32;6.30;;;;;;;;;;4948142;28;20106;-84
2023/05/08 06:01:57;;;;;;;9.65;5.90;;;;;;;;;;4948186;28;20062;-82
2023/05/08 06:04:29;;;;;;;9.70;6.43;;;;;;;;;;4954035;28;20054;-82
2023/05/08 06:06:57;;;;;;;9.63;6.50;;;;;;;;;;4946796;28;20066;-85
2023/05/08 06:09:24;;;;;;;9.50;6.43;;;;;;;;;;4948068;29;20047;-85
2023/05/08 06:11:51;;;;;;;9.88;6.45;;;;;;;;;;4946837;29;20063;-84
2023/05/08 06:14:23;;;;;;;11.93;6.85;;;;;;;;;;4936343;28;20043;-85
2023/05/08 06:16:53;;;;;;;10.27;6.30;;;;;;;;;;4937630;28;20496;-84
2023/05/08 06:19:23;;;;;;;12.77;6.00;;;;;;;;;;4955801;28;20063;-83
2023/05/08 06:21:50;;;;;;;11.82;6.78;;;;;;;;;;4946172;28;20047;-83
2023/05/08 06:24:17;;;;;;;13.63;6.68;;;;;;;;;;4957137;28;20565;-85
2023/05/08 06:26:45;;;;;;;9.50;6.15;;;;;;;;;;4966549;28;20062;-82
2023/05/08 06:29:12;;;;;;;9.65;6.05;;;;;;;;;;4982221;28;20107;-84
2023/05/08 06:31:38;;;;;;;9.50;5.68;;;;;;;;;;4965339;28;20097;-83
2023/05/08 06:34:05;;;;;;;13.63;5.60;;;;;;;;;;4981498;28;20077;-83
2023/05/08 06:36:31;;;;;;;13.13;7.38;;;;;;;;;;4968517;28;20047;-84
2023/05/08 06:38:58;;;;;;;8.63;5.68;;;;;;;;;;4970470;28;20151;-85
2023/05/08 06:41:25;;;;;;;8.13;5.50;;;;;;;;;;4967808;29;20047;-83
2023/05/08 06:43:51;;;;;;;9.60;5.10;;;;;;;;;;4969831;28;20122;-84
2023/05/08 06:46:18;;;;;;;8.75;5.38;;;;;;;;;;4967837;28;20047;-84
2023/05/08 06:48:45;;;;;;;6.25;4.60;;;;;;;;;;4966499;28;20070;-84
2023/05/08 06:51:11;;;;;;;7.97;5.13;;;;;;;;;;4967718;28;20230;-84
2023/05/08 06:53:38;;;;;;;10.57;5.05;;;;;;;;;;4968821;28;20066;-84
2023/05/08 06:56:05;;;;;;;7.40;4.78;;;;;;;;;;4950269;28;20098;-84
2023/05/08 06:58:32;;;;;;;7.22;4.70;;;;;;;;;;4983734;28;20121;-85
2023/05/08 07:01:00;;;;;;;6.90;4.65;;;;;;;;;;4982908;28;20106;-84
2023/05/08 07:03:27;;;;;;;8.05;4.70;;;;;;;;;;4961157;29;20057;-84
2023/05/08 07:05:54;;;;;;;9.93;5.00;;;;;;;;;;4967704;28;20066;-84
2023/05/08 07:08:20;;;;;;;8.40;5.15;;;;;;;;;;4987053;28;20066;-83
2023/05/08 07:10:47;;;;;;;10.38;5.22;;;;;;;;;;4978880;28;20105;-84
2023/05/08 07:13:18;;;;;;;7.13;4.30;;;;;;;;;;4964771;28;20386;-83
2023/05/08 07:15:45;;;;;;;10.27;5.18;;;;;;;;;;4965567;28;20061;-83
2023/05/08 07:18:12;;;;;;;11.73;6.28;;;;;;;;;;4950934;28;20099;-84
2023/05/08 07:20:39;;;;;;;5.85;4.22;;;;;;;;;;4967708;28;20046;-84
2023/05/08 07:23:06;;;;;;;5.43;3.88;;;;;;;;;;4967809;28;20126;-84
2023/05/08 07:25:32;;;;;;;6.78;4.00;;;;;;;;;;4964846;28;20122;-84
2023/05/08 07:27:59;;;;;;;7.05;3.95;;;;;;;;;;4971844;28;20039;-85
2023/05/08 07:30:27;;;;;;;9.05;3.78;;;;;;;;;;4954106;28;20101;-85
2023/05/08 07:32:53;;;;;;;6.63;3.80;;;;;;;;;;4952211;28;20079;-86
2023/05/08 07:35:20;;;;;;;10.63;3.50;;;;;;;;;;4982637;28;20043;-86
2023/05/08 07:37:47;;;;;;;10.15;3.80;;;;;;;;;;4964887;28;20043;-84
2023/05/08 07:40:13;;;;;;;8.23;3.03;;;;;;;;;;4967577;28;20335;-86
2023/05/08 07:42:40;;;;;;;6.55;3.28;;;;;;;;;;4966119;28;20098;-84
2023/05/08 07:45:08;;;;;;;6.70;3.90;;;;;;;;;;4964644;28;20437;-83
2023/05/08 07:47:34;;;;;;;8.45;3.80;;;;;;;;;;4946415;28;20503;-82
2023/05/08 07:50:01;;;;;;;9.43;5.22;;;;;;;;;;4980240;28;20055;-84
2023/05/08 07:52:28;;;;;;;6.13;3.63;;;;;;;;;;4955875;28;20051;-82
2023/05/08 07:54:55;;;;;;;7.18;3.65;;;;;;;;;;4970727;28;20067;-83
2023/05/08 07:57:21;;;;;;;3.50;2.70;;;;;;;;;;4970330;28;20035;-83
2023/05/08 07:59:48;;;;;;;7.85;3.63;;;;;;;;;;4968952;28;20075;-84
2023/05/08 08:02:14;;;;;;;9.25;4.65;;;;;;;;;;4968998;28;20047;-84
2023/05/08 08:04:41;;;;;;;8.63;4.57;;;;;;;;;;4966811;28;20063;-84
2023/05/08 08:07:08;;;;;;;7.80;3.70;;;;;;;;;;4980176;28;20055;-83
2023/05/08 08:09:34;;;;;;;7.95;3.50;;;;;;;;;;4962535;28;20040;-85
2023/05/08 08:12:02;;;;;;;8.70;5.13;;;;;;;;;;4947784;28;20039;-85
2023/05/08 08:14:28;;;;;;;10.93;5.45;;;;;;;;;;4972655;28;20061;-85
2023/05/08 08:16:55;;;;;;;10.40;4.88;;;;;;;;;;4959849;28;20140;-85
2023/05/08 08:19:22;;;;;;;5.95;3.90;;;;;;;;;;4954301;28;20516;-84
2023/05/08 08:21:48;;;;;;;5.85;3.40;;;;;;;;;;4955036;28;20047;-85
2023/05/08 08:24:15;;;;;;;6.07;3.45;;;;;;;;;;4963455;28;20051;-83
2023/05/08 08:26:42;;;;;;;5.00;3.08;;;;;;;;;;4968119;28;20051;-83
2023/05/08 08:29:09;;;;;;;3.33;2.70;;;;;;;;;;4961388;28;20043;-83
2023/05/08 08:31:35;;;;;;;5.47;3.40;;;;;;;;;;4960740;28;20115;-82
2023/05/08 08:34:02;;;;;;;4.18;2.70;;;;;;;;;;4960084;28;20075;-83
2023/05/08 08:36:28;;;;;;;4.82;3.10;;;;;;;;;;4943013;28;20039;-83
2023/05/08 08:38:55;;;;;;;6.22;2.70;;;;;;;;;;4957067;28;20074;-82
2023/05/08 08:41:22;;;;;;;4.63;2.90;;;;;;;;;;4957941;28;20043;-83
2023/05/08 08:43:49;;;;;;;7.20;3.15;;;;;;;;;;4958492;28;20066;-83
2023/05/08 08:46:18;;;;;;;3.78;2.67;;;;;;;;;;4961440;28;20067;-82
2023/05/08 08:48:46;;;;;;;5.75;2.40;;;;;;;;;;4984898;28;20106;-84
2023/05/08 08:51:30;;;;;;;5.20;3.10;;;;;;;;;;4971522;28;20063;-83
2023/05/08 08:54:03;;;;;;;4.68;2.50;;;;;;;;;;4969872;28;20078;-85
2023/05/08 08:56:32;;;;;;;3.30;2.47;;;;;;;;;;4967300;28;20051;-82
2023/05/08 08:59:09;;;;;;;5.68;2.78;;;;;;;;;;4981869;28;20047;-84
2023/05/08 09:01:38;;;;;;;8.95;2.83;;;;;;;;;;4960980;28;20043;-83
2023/05/08 09:04:05;;;;;;;5.18;2.70;;;;;;;;;;4963916;28;20047;-84
2023/05/08 09:06:35;;;;;;;3.70;2.30;;;;;;;;;;4968276;28;20062;-84
2023/05/08 09:09:02;;;;;;;4.60;2.75;;;;;;;;;;4979639;28;20079;-85
2023/05/08 09:11:32;;;;;;;6.68;2.42;;;;;;;;;;4966755;28;20039;-86
2023/05/08 09:13:59;;;;;;;4.68;2.70;;;;;;;;;;4966073;28;20128;-83
2023/05/08 09:16:26;;;;;;;2.50;2.00;;;;;;;;;;4969345;28;20040;-82
2023/05/08 09:18:53;;;;;;;4.53;1.98;;;;;;;;;;4991611;28;20107;-84
2023/05/08 09:21:23;;;;;;;3.70;2.00;;;;;;;;;;4970915;28;20071;-84
2023/05/08 09:23:58;;;;;;;3.28;2.13;;;;;;;;;;4971082;28;20097;-83
2023/05/08 09:26:34;;;;;;;2.30;1.75;;;;;;;;;;4960413;28;20035;-84
2023/05/08 09:29:12;;;;;;;3.95;1.88;;;;;;;;;;4958196;28;20099;-83
2023/05/08 09:31:39;;;;;;;3.40;1.88;;;;;;;;;;4946291;29;20049;-84
2023/05/08 09:34:09;;;;;;;2.28;1.48;;;;;;;;;;4946637;29;20063;-83
2023/05/08 09:36:38;;;;;;;4.47;1.40;;;;;;;;;;4952880;28;20070;-85
2023/05/08 09:39:09;;;;;;;1.80;1.10;;;;;;;;;;4951629;29;20135;-85
2023/05/08 09:41:35;;;;;;;4.32;1.10;;;;;;;;;;4948741;29;20054;-84
2023/05/08 09:44:03;;;;;;;1.50;1.00;;;;;;;;;;4931778;29;20048;-85
2023/05/08 09:46:30;;;;;;;1.52;0.80;;;;;;;;;;4930646;29;20043;-85
2023/05/08 09:49:01;;;;;;;1.55;0.90;;;;;;;;;;4945016;28;20235;-84
2023/05/08 09:51:30;;;;;;;3.17;1.05;;;;;;;;;;4944085;29;20570;-83
2023/05/08 09:53:58;;;;;;;1.13;0.85;;;;;;;;;;4945984;29;20058;-84
2023/05/08 09:56:28;;;;;;;2.63;1.20;;;;;;;;;;4945099;29;20043;-84
2023/05/08 09:58:55;;;;;;;2.97;1.83;;;;;;;;;;4945540;29;20127;-81
2023/05/08 10:01:34;;;;;;;1.95;1.30;;;;;;;;;;4943659;29;20047;-84
2023/05/08 10:04:02;;;;;;;3.58;1.33;;;;;;;;;;4944198;29;20062;-85
2023/05/08 10:06:29;;;;;;;2.58;1.23;;;;;;;;;;4937713;29;20048;-82
2023/05/08 10:09:05;;;;;;;3.40;1.50;;;;;;;;;;4937710;29;20051;-84
2023/05/08 10:11:32;;;;;;;2.85;1.20;;;;;;;;;;4921474;29;20076;-82
2023/05/08 10:13:58;;;;;;;2.05;1.33;;;;;;;;;;4940725;29;20039;-84
2023/05/08 10:16:25;;;;;;;2.38;1.27;;;;;;;;;;4924161;28;20428;-83
2023/05/08 10:18:55;;;;;;;4.07;1.30;;;;;;;;;;4940019;29;20054;-85
2023/05/08 10:21:24;;;;;;;2.75;1.40;;;;;;;;;;4941379;29;20107;-83
2023/05/08 10:23:54;;;;;;;3.78;1.30;;;;;;;;;;4953547;29;20058;-85
2023/05/08 10:26:30;;;;;;;1.88;1.40;;;;;;;;;;4969616;28;20099;-85
2023/05/08 10:28:57;;;;;;;4.70;1.50;;;;;;;;;;4964703;28;20040;-84
2023/05/08 10:31:25;;;;;;;2.17;1.20;;;;;;;;;;4945853;28;20094;-85
2023/05/08 10:33:54;;;;;;;3.55;1.30;;;;;;;;;;4949949;28;20044;-85
2023/05/08 10:36:25;;;;;;;2.40;1.30;;;;;;;;;;4950423;28;20067;-85
2023/05/08 10:38:53;;;;;;;1.85;1.38;;;;;;;;;;4947110;28;20044;-83
2023/05/08 10:41:22;;;;;;;1.92;1.23;;;;;;;;;;4947762;29;20039;-84
2023/05/08 10:43:49;;;;;;;4.18;1.20;;;;;;;;;;4946804;28;20115;-84
2023/05/08 10:46:20;;;;;;;3.10;1.30;;;;;;;;;;4948257;28;20050;-85
2023/05/08 10:48:53;;;;;;;1.77;1.10;;;;;;;;;;4947677;28;20058;-86
2023/05/08 10:51:31;;;;;;;2.55;1.10;;;;;;;;;;4938544;29;20465;-85
2023/05/08 10:54:07;;;;;;;1.70;1.00;;;;;;;;;;4920096;28;20044;-84
2023/05/08 10:56:36;;;;;;;2.13;1.10;;;;;;;;;;4935452;28;20032;-84
2023/05/08 10:59:04;;;;;;;1.67;1.13;;;;;;;;;;4936511;28;20043;-83
2023/05/08 11:01:30;;;;;;;2.47;0.95;;;;;;;;;;4947492;28;20075;-85
2023/05/08 11:03:57;;;;;;;1.20;0.90;;;;;;;;;;4948649;28;20052;-85
2023/05/08 11:06:44;;;;;;;1.50;1.05;;;;;;;;;;4931571;29;20048;-84
2023/05/08 11:09:17;;;;;;;3.80;1.02;;;;;;;;;;4946800;28;20576;-85
2023/05/08 11:11:50;;;;;;;3.42;1.02;;;;;;;;;;4946710;28;20055;-84
2023/05/08 11:14:17;;;;;;;2.50;1.10;;;;;;;;;;4946497;28;20123;-85
2023/05/08 11:16:52;;;;;;;2.67;1.20;;;;;;;;;;4944171;28;20052;-85
2023/05/08 11:19:19;;;;;;;1.98;1.10;;;;;;;;;;4949700;28;20059;-86
2023/05/08 11:22:05;;;;;;;3.90;1.10;;;;;;;;;;4950966;28;20078;-86
2023/05/08 11:24:35;;;;;;;4.05;1.20;;;;;;;;;;4978257;28;20082;-86
2023/05/08 11:27:02;;;;;;;2.70;1.35;;;;;;;;;;4973674;28;20061;-85
2023/05/08 11:29:28;;;;;;;2.20;1.40;;;;;;;;;;4962759;28;20051;-83
2023/05/08 11:31:55;;;;;;;1.95;1.08;;;;;;;;;;4961218;29;20078;-84
2023/05/08 11:34:40;;;;;;;2.15;1.20;;;;;;;;;;4963578;28;20110;-86
2023/05/08 11:37:10;;;;;;;4.45;0.98;;;;;;;;;;4973113;28;20051;-84
2023/05/08 11:39:37;;;;;;;6.30;1.30;;;;;;;;;;4956849;28;20083;-85
2023/05/08 11:42:22;;;;;;;3.42;1.38;;;;;;;;;;4941440;28;20059;-84
2023/05/08 11:44:48;;;;;;;6.90;1.30;;;;;;;;;;4972316;28;20071;-83
2023/05/08 11:47:17;;;;;;;1.65;0.88;;;;;;;;;;4956105;28;20408;-83
2023/05/08 11:49:44;;;;;;;3.97;1.15;;;;;;;;;;4955721;28;20051;-83
2023/05/08 11:52:10;;;;;;;6.38;1.38;;;;;;;;;;4971096;28;20054;-83
2023/05/08 11:54:37;;;;;;;2.15;1.30;;;;;;;;;;4955365;28;20065;-83
2023/05/08 11:57:04;;;;;;;2.47;1.15;;;;;;;;;;4970487;28;20493;-85
2023/05/08 11:59:34;;;;;;;2.28;1.20;;;;;;;;;;4959073;28;20069;-83
2023/05/08 12:02:00;;;;;;;2.65;1.23;;;;;;;;;;4956989;28;20063;-83
2023/05/08 12:04:45;;;;;;;2.15;1.40;;;;;;;;;;4959727;28;20122;-84
2023/05/08 12:07:12;;;;;;;3.40;1.50;;;;;;;;;;4964759;28;20106;-86
2023/05/08 12:09:39;;;;;;;5.32;1.40;;;;;;;;;;4952603;28;20074;-86
2023/05/08 12:12:06;;;;;;;3.50;1.10;;;;;;;;;;4965477;28;20086;-85
2023/05/08 12:14:33;;;;;;;3.05;1.20;;;;;;;;;;4967971;28;20048;-85
2023/05/08 12:17:01;;;;;;;2.83;1.40;;;;;;;;;;4950912;29;20047;-86
2023/05/08 12:19:28;;;;;;;3.28;1.52;;;;;;;;;;4965628;28;20206;-83
2023/05/08 12:21:55;;;;;;;6.25;1.23;;;;;;;;;;4965168;28;20067;-86
2023/05/08 12:24:24;;;;;;;3.30;1.40;;;;;;;;;;4935480;28;20039;-84
2023/05/08 12:26:55;;;;;;;5.28;1.60;;;;;;;;;;4954800;28;20047;-84
2023/05/08 12:29:22;;;;;;;2.88;1.25;;;;;;;;;;4947568;29;20052;-84
2023/05/08 12:31:49;;;;;;;2.78;1.30;;;;;;;;;;4936222;29;20039;-82
2023/05/08 12:34:16;;;;;;;4.25;1.40;;;;;;;;;;4936527;29;20047;-83
2023/05/08 12:36:42;;;;;;;3.28;1.38;;;;;;;;;;4937916;29;20040;-83
2023/05/08 12:39:12;;;;;;;4.15;1.30;;;;;;;;;;4940731;29;20091;-84
2023/05/08 12:41:49;;;;;;;3.25;1.38;;;;;;;;;;4943054;29;20075;-84
2023/05/08 12:44:20;;;;;;;3.40;1.00;;;;;;;;;;4939575;29;20476;-83
2023/05/08 12:46:51;;;;;;;1.80;1.00;;;;;;;;;;4932426;29;20058;-84
2023/05/08 12:49:28;;;;;;;2.58;1.20;;;;;;;;;;4934646;29;20066;-83
2023/05/08 12:52:00;;;;;;;1.52;1.02;;;;;;;;;;4937445;29;20051;-83
2023/05/08 12:54:30;;;;;;;2.58;1.20;;;;;;;;;;4936870;29;20082;-83
2023/05/08 12:56:57;;;;;;;2.25;1.10;;;;;;;;;;4919847;29;20122;-83
2023/05/08 12:59:32;;;;;;;3.53;1.20;;;;;;;;;;4941005;28;20054;-84
2023/05/08 13:01:59;;;;;;;3.03;1.10;;;;;;;;;;4931868;29;20531;-86
2023/05/08 13:04:26;;;;;;;4.20;1.48;;;;;;;;;;4940199;29;20039;-84
2023/05/08 13:06:55;;;;;;;1.90;1.13;;;;;;;;;;4941999;29;20036;-85
2023/05/08 13:09:22;;;;;;;3.88;1.25;;;;;;;;;;4948570;28;20059;-88
2023/05/08 13:11:49;;;;;;;3.55;1.20;;;;;;;;;;4941780;29;20094;-84
2023/05/08 13:14:15;;;;;;;3.00;1.10;;;;;;;;;;4935308;29;20058;-85
2023/05/08 13:16:46;;;;;;;1.75;1.10;;;;;;;;;;4938400;29;20047;-86
2023/05/08 13:19:17;;;;;;;1.15;0.90;;;;;;;;;;4917920;29;20048;-86
2023/05/08 13:21:46;;;;;;;1.52;1.05;;;;;;;;;;4931790;29;20054;-86
2023/05/08 13:24:13;;;;;;;2.00;1.27;;;;;;;;;;4956061;28;20095;-83
2023/05/08 13:26:40;;;;;;;3.00;1.50;;;;;;;;;;4956426;28;20043;-86
2023/05/08 13:29:07;;;;;;;2.20;1.25;;;;;;;;;;4940117;29;20130;-80
2023/05/08 13:31:33;;;;;;;4.47;1.08;;;;;;;;;;4965494;28;20399;-79
2023/05/08 13:34:00;;;;;;;2.85;1.13;;;;;;;;;;4951985;28;20452;-80
2023/05/08 13:36:27;;;;;;;3.28;1.23;;;;;;;;;;4935932;29;20463;-80
2023/05/08 13:38:56;;;;;;;3.90;1.30;;;;;;;;;;4952562;28;20455;-79
2023/05/08 13:41:22;;;;;;;3.95;1.20;;;;;;;;;;4947471;28;20055;-81
2023/05/08 13:43:54;;;;;;;3.58;1.20;;;;;;;;;;4933866;29;20057;-82
2023/05/08 13:46:22;;;;;;;4.47;1.20;;;;;;;;;;4950200;28;20392;-82
2023/05/08 13:48:49;;;;;;;6.80;1.25;;;;;;;;;;4945533;28;20051;-80
2023/05/08 13:51:15;;;;;;;6.15;1.30;;;;;;;;;;4938220;28;20047;-82
2023/05/08 13:53:42;;;;;;;4.53;1.08;;;;;;;;;;4969191;28;20124;-82
2023/05/08 13:56:08;;;;;;;1.85;1.08;;;;;;;;;;4967673;28;20031;-81
2023/05/08 13:58:36;;;;;;;2.20;1.20;;;;;;;;;;4943401;28;20075;-81
2023/05/08 14:01:02;;;;;;;1.58;1.10;;;;;;;;;;4945235;28;20551;-81
2023/05/08 14:03:49;;;;;;;2.97;1.33;;;;;;;;;;4949057;28;20118;-81
2023/05/08 14:06:20;;;;;;;1.13;0.95;;;;;;;;;;4955534;28;20047;-82
2023/05/08 14:08:47;;;;;;;1.83;1.00;;;;;;;;;;4938538;28;20151;-71
2023/05/08 14:11:18;;;;;;;4.40;1.20;;;;;;;;;;4929535;28;20047;-73
2023/05/08 14:13:45;;;;;;;2.92;1.20;;;;;;;;;;4914697;29;20065;-72
2023/05/08 14:16:13;;;;;;;5.32;1.27;;;;;;;;;;4930623;28;20047;-73
2023/05/08 14:18:39;;;;;;;1.75;1.10;;;;;;;;;;4930306;28;20078;-71
2023/05/08 14:21:06;;;;;;;1.95;1.17;;;;;;;;;;4930833;28;20473;-73
2023/05/08 14:23:34;;;;;;;5.35;1.30;;;;;;;;;;4948233;28;20580;-73
2023/05/08 14:26:01;;;;;;;3.15;1.17;;;;;;;;;;4951032;28;20055;-72
2023/05/08 14:28:27;;;;;;;3.97;1.20;;;;;;;;;;4929976;28;20654;-77
2023/05/08 14:30:54;;;;;;;5.75;1.23;;;;;;;;;;4947080;28;20047;-72
2023/05/08 14:33:21;;;;;;;4.32;1.20;;;;;;;;;;4932291;28;20043;-73
2023/05/08 14:35:47;;;;;;;2.83;1.20;;;;;;;;;;4952199;29;20397;-79
2023/05/08 14:38:14;;;;;;;5.35;1.27;;;;;;;;;;4955294;28;20392;-82
2023/05/08 14:40:40;;;;;;;4.15;1.27;;;;;;;;;;4949120;28;20042;-76
2023/05/08 14:43:07;;;;;;;6.00;1.30;;;;;;;;;;4953951;28;20130;-75
2023/05/08 14:45:34;;;;;;;6.28;1.30;;;;;;;;;;4960712;28;20494;-80